Time;durP1;ratioP1;P1;durP2;ratioP2;P2;SDS_P1;SDS_P2;PMS_P1;PMS_P2;Temp;Humidity;BMP_temperature;BMP_pressure;BME280_temperature;BME280_humidity;BME280_pressure;Samples;Min_cycle;Max_cycle;Signal;HPM_P1;HPM_P2
2022/06/09 00:01:37;;;;;;;16.90;2.53;;;11.80;99.90;;;;;;4891410;29;20044;-56
2022/06/09 00:04:13;;;;;;;15.18;2.80;;;11.70;99.90;;;;;;4889712;29;20135;-57
2022/06/09 00:07:10;;;;;;;23.15;3.20;;;11.70;99.90;;;;;;4893136;29;20048;-56
2022/06/09 00:09:46;;;;;;;17.15;2.40;;;11.70;99.90;;;;;;4874855;29;20556;-57
2022/06/09 00:12:14;;;;;;;14.18;2.50;;;11.60;99.90;;;;;;4892971;29;20053;-57
2022/06/09 00:14:42;;;;;;;11.10;2.30;;;11.60;99.90;;;;;;4888719;29;20063;-57
2022/06/09 00:17:09;;;;;;;21.10;3.20;;;11.60;99.90;;;;;;4878184;29;20063;-58
2022/06/09 00:19:37;;;;;;;10.27;1.90;;;11.60;99.90;;;;;;4892365;29;20377;-58
2022/06/09 00:22:05;;;;;;;17.20;2.42;;;11.60;99.90;;;;;;4891614;29;20059;-57
2022/06/09 00:24:33;;;;;;;22.48;2.88;;;11.50;99.90;;;;;;4884289;29;20442;-57
2022/06/09 00:27:00;;;;;;;14.55;3.42;;;11.50;99.90;;;;;;4886775;29;20417;-58
2022/06/09 00:29:28;;;;;;;11.90;2.78;;;11.50;99.90;;;;;;4891446;29;20059;-56
2022/06/09 00:31:55;;;;;;;11.35;2.58;;;11.50;99.90;;;;;;4863463;29;20786;-57
2022/06/09 00:34:23;;;;;;;16.08;2.38;;;11.50;99.90;;;;;;4887498;29;20056;-57
2022/06/09 00:36:51;;;;;;;15.18;2.53;;;11.50;99.90;;;;;;4891753;29;20075;-57
2022/06/09 00:39:18;;;;;;;17.38;2.55;;;11.40;99.90;;;;;;4892940;29;20052;-58
2022/06/09 00:41:46;;;;;;;16.52;2.78;;;11.40;99.90;;;;;;4892574;29;20059;-56
2022/06/09 00:44:18;;;;;;;15.88;2.53;;;11.40;99.90;;;;;;4893401;29;20544;-57
2022/06/09 00:46:51;;;;;;;17.55;3.20;;;11.40;99.90;;;;;;4876530;29;20049;-57
2022/06/09 00:49:33;;;;;;;14.23;2.13;;;11.30;99.90;;;;;;4873572;29;20068;-57
2022/06/09 00:52:04;;;;;;;16.77;2.22;;;11.30;99.90;;;;;;4889843;29;20053;-57
2022/06/09 00:54:55;;;;;;;14.68;2.22;;;11.20;99.90;;;;;;4892034;29;20044;-57
2022/06/09 00:57:34;;;;;;;8.70;2.00;;;11.20;99.90;;;;;;4892326;29;20075;-57
2022/06/09 01:00:15;;;;;;;15.60;2.60;;;11.10;99.90;;;;;;4888782;29;20049;-57
2022/06/09 01:02:44;;;;;;;21.02;2.10;;;11.10;99.90;;;;;;4874350;29;20053;-59
2022/06/09 01:05:14;;;;;;;15.95;2.20;;;11.10;99.90;;;;;;4887051;29;20052;-58
2022/06/09 01:07:48;;;;;;;14.63;2.00;;;11.10;99.90;;;;;;4893685;29;20508;-57
2022/06/09 01:10:15;;;;;;;16.23;2.45;;;11.00;99.90;;;;;;4894613;29;20052;-56
2022/06/09 01:12:46;;;;;;;16.13;2.53;;;11.00;99.90;;;;;;4894291;29;20142;-56
2022/06/09 01:15:20;;;;;;;13.30;3.03;;;11.00;99.90;;;;;;4894304;29;20513;-56
2022/06/09 01:18:39;;;;;;;15.52;2.10;;;11.00;99.90;;;;;;4894338;29;20053;-56
2022/06/09 01:21:38;;;;;;;10.48;2.38;;;11.00;99.90;;;;;;4847105;29;20409;-57
2022/06/09 01:24:38;;;;;;;8.35;2.20;;;10.90;99.90;;;;;;4895938;29;20049;-56
2022/06/09 01:27:15;;;;;;;7.97;1.23;;;10.90;99.90;;;;;;4894082;29;20052;-56
2022/06/09 01:30:13;;;;;;;15.50;3.28;;;10.80;99.90;;;;;;4896071;29;20059;-56
2022/06/09 01:32:54;;;;;;;16.02;2.15;;;10.80;99.90;;;;;;4886223;29;20037;-56
2022/06/09 01:36:07;;;;;;;14.70;2.40;;;10.80;99.90;;;;;;4896488;29;20055;-56
2022/06/09 01:38:46;;;;;;;16.05;2.47;;;10.80;99.90;;;;;;4848880;29;20074;-57
2022/06/09 01:41:15;;;;;;;20.60;2.42;;;10.80;99.90;;;;;;4893731;29;20056;-57
2022/06/09 01:43:46;;;;;;;12.10;2.13;;;10.70;99.90;;;;;;4890570;29;20485;-56
2022/06/09 01:46:33;;;;;;;15.25;2.22;;;10.70;99.90;;;;;;4892706;29;20063;-57
2022/06/09 01:49:12;;;;;;;5.30;2.08;;;10.70;99.90;;;;;;4878695;29;20060;-58
2022/06/09 01:51:42;;;;;;;12.70;1.90;;;10.60;99.90;;;;;;4877552;29;20049;-57
2022/06/09 01:54:22;;;;;;;13.98;2.30;;;10.60;99.90;;;;;;4865757;29;20307;-55
2022/06/09 01:57:03;;;;;;;13.85;2.38;;;10.60;99.90;;;;;;4894769;29;20568;-56
2022/06/09 01:59:42;;;;;;;5.68;1.80;;;10.50;99.90;;;;;;4894148;29;20388;-58
2022/06/09 02:02:18;;;;;;;10.50;1.80;;;10.50;99.90;;;;;;4894409;29;20524;-57
2022/06/09 02:04:51;;;;;;;12.23;2.05;;;10.50;99.90;;;;;;4894135;29;20048;-58
2022/06/09 02:07:20;;;;;;;13.75;3.20;;;10.50;99.90;;;;;;4895301;29;20045;-58
2022/06/09 02:09:48;;;;;;;17.27;2.38;;;10.50;99.90;;;;;;4896652;29;20053;-57
2022/06/09 02:12:22;;;;;;;14.45;1.88;;;10.50;99.90;;;;;;4895732;29;20056;-58
2022/06/09 02:14:53;;;;;;;17.50;3.08;;;10.50;99.90;;;;;;4895470;29;20044;-58
2022/06/09 02:17:21;;;;;;;17.00;2.20;;;10.50;99.90;;;;;;4892931;29;20056;-57
2022/06/09 02:19:50;;;;;;;18.48;2.50;;;10.50;99.90;;;;;;4895993;29;20056;-58
2022/06/09 02:22:17;;;;;;;15.77;3.08;;;10.50;99.90;;;;;;4894508;29;20047;-58
2022/06/09 02:24:45;;;;;;;22.30;2.15;;;10.50;99.90;;;;;;4895505;29;20067;-58
2022/06/09 02:27:14;;;;;;;16.92;3.58;;;10.40;99.90;;;;;;4894584;29;20044;-58
2022/06/09 02:29:41;;;;;;;15.70;2.33;;;10.40;99.90;;;;;;4893358;29;20045;-57
2022/06/09 02:32:09;;;;;;;9.52;2.03;;;10.40;99.90;;;;;;4895498;29;20056;-57
2022/06/09 02:34:37;;;;;;;13.77;2.38;;;10.40;99.90;;;;;;4893862;29;20052;-58
2022/06/09 02:37:05;;;;;;;9.63;1.90;;;10.30;99.90;;;;;;4878365;29;20063;-57
2022/06/09 02:39:32;;;;;;;14.32;1.90;;;10.30;99.90;;;;;;4894167;29;20493;-58
2022/06/09 02:42:00;;;;;;;10.07;2.70;;;10.30;99.90;;;;;;4896526;29;20073;-58
2022/06/09 02:44:27;;;;;;;12.45;2.30;;;10.20;99.90;;;;;;4895286;29;20480;-56
2022/06/09 02:46:55;;;;;;;7.93;3.00;;;10.20;99.90;;;;;;4893622;29;20052;-57
2022/06/09 02:49:23;;;;;;;11.65;2.25;;;10.20;99.90;;;;;;4895450;29;20413;-56
2022/06/09 02:51:50;;;;;;;6.80;2.40;;;10.20;99.90;;;;;;4893768;29;20045;-57
2022/06/09 02:54:18;;;;;;;11.48;2.60;;;10.10;99.90;;;;;;4894169;29;20413;-56
2022/06/09 02:56:45;;;;;;;10.90;2.85;;;10.10;99.90;;;;;;4893027;29;20055;-57
2022/06/09 02:59:14;;;;;;;18.88;1.95;;;10.10;99.90;;;;;;4894270;29;20066;-57
2022/06/09 03:01:41;;;;;;;18.35;2.30;;;10.10;99.90;;;;;;4895551;29;20540;-58
2022/06/09 03:04:09;;;;;;;17.77;2.85;;;10.00;99.90;;;;;;4893326;29;20481;-58
2022/06/09 03:06:37;;;;;;;17.15;2.40;;;10.00;99.90;;;;;;4895521;29;20048;-58
2022/06/09 03:09:04;;;;;;;17.98;2.85;;;10.00;99.90;;;;;;4894254;29;20490;-57
2022/06/09 03:11:32;;;;;;;17.08;2.05;;;9.90;99.90;;;;;;4896679;29;20045;-57
2022/06/09 03:13:59;;;;;;;7.50;1.95;;;9.90;99.90;;;;;;4899203;29;20485;-57
2022/06/09 03:16:27;;;;;;;17.02;2.10;;;9.90;99.90;;;;;;4899031;29;20048;-56
2022/06/09 03:18:55;;;;;;;17.95;3.00;;;9.90;99.90;;;;;;4899954;29;20049;-56
2022/06/09 03:21:23;;;;;;;12.15;2.22;;;9.80;99.90;;;;;;4897618;29;20445;-56
2022/06/09 03:23:51;;;;;;;9.60;2.72;;;9.80;99.90;;;;;;4899008;29;20183;-56
2022/06/09 03:26:19;;;;;;;12.10;2.53;;;9.80;99.90;;;;;;4897865;29;20060;-57
2022/06/09 03:28:47;;;;;;;7.68;1.83;;;9.70;99.90;;;;;;4898223;29;20055;-57
2022/06/09 03:31:14;;;;;;;5.57;1.77;;;9.70;99.90;;;;;;4899775;29;20063;-57
2022/06/09 03:33:42;;;;;;;9.77;2.55;;;9.70;99.90;;;;;;4896440;29;20048;-57
2022/06/09 03:36:10;;;;;;;18.52;2.13;;;9.70;99.90;;;;;;4896343;29;20068;-56
2022/06/09 03:38:40;;;;;;;17.48;2.60;;;9.70;99.90;;;;;;4898014;29;20048;-57
2022/06/09 03:41:08;;;;;;;12.57;3.00;;;9.70;99.90;;;;;;4898770;29;20052;-58
2022/06/09 03:43:36;;;;;;;15.32;2.50;;;9.60;99.90;;;;;;4882351;29;20452;-57
2022/06/09 03:46:04;;;;;;;13.35;2.92;;;9.60;99.90;;;;;;4898375;29;20045;-57
2022/06/09 03:48:31;;;;;;;10.43;2.10;;;9.60;99.90;;;;;;4899444;29;20393;-57
2022/06/09 03:50:59;;;;;;;9.30;2.20;;;9.60;99.90;;;;;;4898684;29;20056;-56
2022/06/09 03:53:27;;;;;;;10.30;2.58;;;9.60;99.90;;;;;;4896564;29;20063;-57
2022/06/09 03:55:56;;;;;;;8.80;2.30;;;9.60;99.90;;;;;;4898365;29;20052;-58
2022/06/09 03:58:24;;;;;;;7.60;1.98;;;9.50;99.90;;;;;;4898312;29;20048;-56
2022/06/09 04:00:51;;;;;;;12.27;1.65;;;9.50;99.90;;;;;;4895630;29;20097;-57
2022/06/09 04:03:20;;;;;;;8.75;2.25;;;9.50;99.90;;;;;;4898418;29;20064;-58
2022/06/09 04:05:47;;;;;;;9.32;2.08;;;9.50;99.90;;;;;;4899395;29;20049;-58
2022/06/09 04:08:15;;;;;;;15.82;2.65;;;9.50;99.90;;;;;;4897111;29;20521;-57
2022/06/09 04:10:42;;;;;;;10.10;2.55;;;9.40;99.90;;;;;;4897673;29;20071;-60
2022/06/09 04:13:10;;;;;;;11.35;2.70;;;9.40;99.90;;;;;;4899102;29;20052;-56
2022/06/09 04:15:38;;;;;;;16.48;2.63;;;9.40;99.90;;;;;;4898557;29;20397;-56
2022/06/09 04:18:06;;;;;;;20.90;2.92;;;9.40;99.90;;;;;;4898936;29;20430;-57
2022/06/09 04:20:34;;;;;;;21.25;2.35;;;9.40;99.90;;;;;;4896693;29;20044;-57
2022/06/09 04:23:02;;;;;;;10.32;1.88;;;9.40;99.90;;;;;;4896979;29;20048;-55
2022/06/09 04:25:30;;;;;;;17.17;2.15;;;9.30;99.90;;;;;;4897116;29;20131;-55
2022/06/09 04:27:59;;;;;;;13.63;2.58;;;9.40;99.90;;;;;;4897210;29;20068;-55
2022/06/09 04:30:26;;;;;;;9.98;2.22;;;9.40;99.90;;;;;;4897324;29;20052;-55
2022/06/09 04:32:54;;;;;;;17.15;2.85;;;9.40;99.90;;;;;;4897405;29;20068;-56
2022/06/09 04:35:23;;;;;;;12.13;2.10;;;9.40;99.90;;;;;;4896543;29;20049;-56
2022/06/09 04:38:00;;;;;;;17.08;2.97;;;9.40;99.90;;;;;;4898710;29;20394;-57
2022/06/09 04:40:35;;;;;;;13.18;1.95;;;9.40;99.90;;;;;;4896491;29;20040;-57
2022/06/09 04:43:05;;;;;;;10.07;1.63;;;9.40;99.90;;;;;;4894132;29;20063;-57
2022/06/09 04:45:34;;;;;;;7.38;1.98;;;9.40;99.90;;;;;;4896312;29;20045;-57
2022/06/09 04:48:03;;;;;;;6.57;1.90;;;9.50;99.90;;;;;;4887251;29;20052;-57
2022/06/09 04:50:31;;;;;;;8.97;1.73;;;9.60;99.90;;;;;;4876422;29;20482;-56
2022/06/09 04:52:59;;;;;;;6.15;1.58;;;9.60;99.90;;;;;;4884244;29;20056;-57
2022/06/09 04:55:26;;;;;;;12.40;2.10;;;9.70;99.90;;;;;;4888980;29;20049;-55
2022/06/09 04:57:55;;;;;;;16.10;2.00;;;9.80;99.90;;;;;;4890849;29;20052;-56
2022/06/09 05:00:23;;;;;;;10.88;1.70;;;10.00;99.90;;;;;;4874895;29;20545;-56
2022/06/09 05:02:51;;;;;;;15.95;3.65;;;10.10;99.90;;;;;;4876477;29;20055;-55
2022/06/09 05:05:23;;;;;;;5.90;1.42;;;10.20;99.90;;;;;;4883720;29;20048;-56
2022/06/09 05:07:51;;;;;;;7.03;1.17;;;10.20;99.90;;;;;;4892470;29;20060;-57
2022/06/09 05:10:19;;;;;;;12.25;1.83;;;10.30;99.90;;;;;;4891475;29;20056;-56
2022/06/09 05:12:47;;;;;;;6.00;1.77;;;10.40;99.90;;;;;;4895698;29;20432;-56
2022/06/09 05:15:17;;;;;;;11.65;1.30;;;10.40;99.90;;;;;;4894725;29;20044;-57
2022/06/09 05:17:45;;;;;;;10.63;1.77;;;10.50;99.90;;;;;;4893447;29;20056;-56
2022/06/09 05:20:17;;;;;;;8.88;1.27;;;10.50;99.90;;;;;;4892480;29;20041;-55
2022/06/09 05:22:44;;;;;;;5.70;1.95;;;10.60;99.90;;;;;;4880767;29;20044;-57
2022/06/09 05:25:13;;;;;;;12.57;2.00;;;10.60;99.90;;;;;;4893093;29;20522;-56
2022/06/09 05:27:41;;;;;;;4.18;1.50;;;10.70;99.90;;;;;;4895663;29;20401;-57
2022/06/09 05:30:14;;;;;;;6.30;1.38;;;10.80;99.90;;;;;;4894341;29;20056;-56
2022/06/09 05:32:42;;;;;;;9.70;1.42;;;10.80;99.90;;;;;;4891407;29;20393;-55
2022/06/09 05:35:10;;;;;;;10.13;1.55;;;10.90;99.90;;;;;;4891060;29;20489;-56
2022/06/09 05:45:59;;;;;;;14.18;3.33;;;11.00;99.90;;;;;;4892707;29;20049;-56
2022/06/09 05:48:27;;;;;;;6.88;1.00;;;11.10;99.90;;;;;;4888313;29;20048;-56
2022/06/09 05:50:55;;;;;;;5.10;1.40;;;11.10;99.90;;;;;;4884771;29;20059;-55
2022/06/09 05:53:23;;;;;;;7.32;1.73;;;11.20;99.90;;;;;;4892633;29;20064;-56
2022/06/09 05:55:51;;;;;;;10.07;1.80;;;11.20;99.90;;;;;;4893169;29;20052;-57
2022/06/09 05:58:19;;;;;;;10.63;1.83;;;11.30;99.90;;;;;;4894383;29;20063;-56
2022/06/09 06:00:47;;;;;;;10.95;1.35;;;11.40;99.90;;;;;;4894806;29;20413;-56
2022/06/09 06:03:16;;;;;;;8.82;1.20;;;11.50;99.90;;;;;;4894587;29;20048;-57
2022/06/09 06:08:31;;;;;;;5.40;1.20;;;11.60;99.90;;;;;;4894527;29;20051;-57
2022/06/09 06:10:58;;;;;;;14.82;1.55;;;11.70;99.90;;;;;;4895307;29;20512;-57
2022/06/09 06:13:26;;;;;;;9.50;1.55;;;11.80;99.90;;;;;;4893136;29;20052;-56
2022/06/09 06:15:54;;;;;;;11.23;1.30;;;11.90;99.90;;;;;;4888189;29;20051;-56
2022/06/09 06:18:30;;;;;;;9.20;1.92;;;11.90;99.90;;;;;;4890326;29;20049;-57
2022/06/09 06:20:58;;;;;;;8.50;1.48;;;12.00;99.90;;;;;;4885988;29;20045;-57
2022/06/09 06:23:26;;;;;;;9.23;1.20;;;12.10;99.90;;;;;;4888563;29;20052;-57
2022/06/09 06:25:56;;;;;;;10.48;1.35;;;12.10;99.90;;;;;;4892862;29;20052;-56
2022/06/09 06:28:25;;;;;;;7.23;1.30;;;12.20;99.90;;;;;;4892870;29;20501;-56
2022/06/09 06:30:57;;;;;;;10.55;1.52;;;12.20;99.90;;;;;;4894229;29;20482;-56
2022/06/09 06:33:25;;;;;;;15.07;3.30;;;12.30;99.90;;;;;;4894010;29;20056;-56
2022/06/09 06:35:53;;;;;;;6.65;1.30;;;12.40;99.90;;;;;;4901957;29;20875;-57
2022/06/09 06:38:21;;;;;;;9.60;1.05;;;12.50;99.90;;;;;;4884437;29;20595;-57
2022/06/09 06:40:50;;;;;;;6.47;1.38;;;12.50;99.90;;;;;;4885611;29;20056;-57
2022/06/09 06:43:18;;;;;;;6.90;1.25;;;12.60;99.90;;;;;;4888469;29;20048;-57
2022/06/09 06:45:45;;;;;;;5.57;1.08;;;12.60;99.90;;;;;;4888988;29;20057;-57
2022/06/09 06:48:13;;;;;;;8.60;1.80;;;12.60;99.90;;;;;;4884041;29;20421;-57
2022/06/09 06:50:41;;;;;;;12.18;1.90;;;12.70;99.90;;;;;;4892259;29;20436;-57
2022/06/09 06:53:12;;;;;;;5.95;1.27;;;12.70;99.90;;;;;;4892323;29;20060;-56
2022/06/09 06:55:40;;;;;;;5.20;1.15;;;12.80;99.90;;;;;;4881669;29;20405;-56
2022/06/09 06:58:08;;;;;;;20.17;2.20;;;12.80;99.90;;;;;;4893507;29;20041;-57
2022/06/09 07:00:37;;;;;;;12.88;1.23;;;12.90;99.90;;;;;;4892040;29;20408;-57
2022/06/09 07:03:07;;;;;;;9.77;2.25;;;12.90;99.90;;;;;;4884641;29;20048;-57
2022/06/09 07:05:59;;;;;;;5.05;1.30;;;13.00;99.90;;;;;;4881296;29;20048;-57
2022/06/09 07:08:27;;;;;;;19.23;1.35;;;13.00;99.90;;;;;;4890776;29;20064;-57
2022/06/09 07:10:56;;;;;;;7.45;1.13;;;13.10;99.90;;;;;;4893528;29;20048;-58
2022/06/09 07:13:24;;;;;;;7.53;1.17;;;13.20;99.90;;;;;;4894338;29;20063;-57
2022/06/09 07:15:52;;;;;;;9.70;1.42;;;13.30;99.90;;;;;;4891997;29;20053;-58
2022/06/09 07:18:28;;;;;;;10.23;1.75;;;13.40;99.90;;;;;;4885264;29;20049;-57
2022/06/09 07:20:56;;;;;;;6.00;1.10;;;13.50;99.90;;;;;;4893410;29;20512;-57
2022/06/09 07:23:26;;;;;;;4.60;0.80;;;13.60;99.90;;;;;;4894298;29;20049;-58
2022/06/09 07:25:55;;;;;;;12.35;1.73;;;13.80;99.90;;;;;;4893172;29;20513;-57
2022/06/09 07:28:23;;;;;;;10.00;1.15;;;14.00;99.90;;;;;;4893811;29;20049;-56
2022/06/09 07:30:56;;;;;;;10.70;1.58;;;14.20;99.90;;;;;;4892598;29;20045;-56
2022/06/09 07:33:26;;;;;;;7.47;1.90;;;14.30;99.90;;;;;;4892246;29;20045;-57
2022/06/09 07:35:58;;;;;;;8.35;1.33;;;14.50;99.90;;;;;;4893210;29;20052;-58
2022/06/09 07:38:27;;;;;;;4.78;1.90;;;14.60;99.90;;;;;;4890347;29;20106;-58
2022/06/09 07:40:55;;;;;;;10.18;1.10;;;14.70;99.90;;;;;;4893424;29;20045;-56
2022/06/09 07:43:43;;;;;;;4.82;1.33;;;14.90;99.90;;;;;;4892445;29;20040;-56
2022/06/09 07:46:11;;;;;;;11.38;1.40;;;14.90;99.90;;;;;;4892459;29;20064;-56
2022/06/09 07:48:39;;;;;;;11.30;1.25;;;14.90;99.90;;;;;;4887177;29;20049;-56
2022/06/09 07:51:17;;;;;;;9.38;1.73;;;14.90;99.90;;;;;;4887994;29;20059;-57
2022/06/09 07:53:45;;;;;;;4.22;0.70;;;15.00;99.90;;;;;;4885543;29;20049;-57
2022/06/09 07:56:13;;;;;;;6.35;1.38;;;15.00;99.90;;;;;;4892488;29;20052;-56
2022/06/09 07:58:41;;;;;;;5.45;0.85;;;15.00;99.90;;;;;;4893909;29;20052;-55
2022/06/09 08:01:10;;;;;;;5.25;1.38;;;15.10;99.90;;;;;;4894483;29;20055;-56
2022/06/09 08:03:40;;;;;;;8.70;1.00;;;15.20;99.90;;;;;;4894705;29;20063;-56
2022/06/09 08:06:09;;;;;;;4.45;1.00;;;15.30;99.90;;;;;;4892450;29;20052;-59
2022/06/09 08:08:56;;;;;;;6.00;0.80;;;15.30;99.90;;;;;;4887020;29;20492;-57
2022/06/09 08:11:32;;;;;;;10.10;2.60;;;15.30;99.90;;;;;;4889093;29;20044;-58
2022/06/09 08:14:02;;;;;;;9.55;1.00;;;15.30;99.90;;;;;;4892145;29;20051;-57
2022/06/09 08:16:30;;;;;;;10.13;1.00;;;15.30;99.90;;;;;;4891641;29;20053;-57
2022/06/09 08:18:59;;;;;;;9.45;0.90;;;15.40;99.90;;;;;;4895737;29;20401;-57
2022/06/09 08:21:27;;;;;;;3.92;0.68;;;15.40;99.90;;;;;;4889006;29;20052;-58
2022/06/09 08:24:14;;;;;;;6.45;0.90;;;15.50;99.90;;;;;;4892089;29;20043;-57
2022/06/09 08:26:42;;;;;;;12.63;1.73;;;15.50;99.90;;;;;;4893457;29;20052;-57
2022/06/09 08:29:10;;;;;;;8.90;1.60;;;15.60;99.90;;;;;;4884330;29;20064;-56
2022/06/09 08:31:39;;;;;;;6.70;1.23;;;15.70;99.90;;;;;;4892369;29;20051;-57
2022/06/09 08:34:06;;;;;;;6.57;0.85;;;15.80;99.90;;;;;;4894048;29;20048;-58
2022/06/09 08:36:34;;;;;;;5.60;1.15;;;15.90;99.90;;;;;;4894097;29;20049;-57
2022/06/09 08:39:02;;;;;;;5.47;0.70;;;15.90;99.90;;;;;;4892405;29;20056;-57
2022/06/09 08:41:34;;;;;;;10.02;1.10;;;15.90;99.90;;;;;;4891171;29;20059;-58
2022/06/09 08:44:29;;;;;;;;;;;15.90;99.90;;;;;;4887793;29;20059;-56
2022/06/09 08:47:14;;;;;;;9.43;0.88;;;15.90;99.90;;;;;;4881213;29;19932;-56
2022/06/09 08:50:14;;;;;;;6.15;0.77;;;16.00;99.90;;;;;;4881881;29;20056;-57
2022/06/09 08:52:48;;;;;;;10.30;1.02;;;16.00;99.90;;;;;;4884191;29;20055;-57
2022/06/09 08:55:22;;;;;;;7.30;1.02;;;16.00;99.90;;;;;;4891803;29;20045;-57
2022/06/09 08:57:52;;;;;;;13.10;2.53;;;16.00;99.90;;;;;;4892972;29;20052;-57
2022/06/09 09:00:25;;;;;;;5.53;1.60;;;16.00;99.90;;;;;;4892500;29;20056;-56
2022/06/09 09:03:01;;;;;;;5.10;1.30;;;16.10;99.90;;;;;;4893341;29;20056;-57
2022/06/09 09:05:32;;;;;;;12.35;1.35;;;16.20;99.90;;;;;;4894875;29;20060;-57
2022/06/09 09:08:08;;;;;;;7.47;1.05;;;16.30;99.90;;;;;;4890090;29;20063;-57
2022/06/09 09:10:48;;;;;;;5.78;0.82;;;16.40;99.90;;;;;;4891674;29;20050;-57
2022/06/09 09:13:32;;;;;;;5.53;1.70;;;16.50;99.90;;;;;;4884715;29;20516;-56
2022/06/09 09:16:12;;;;;;;13.65;1.13;;;16.60;99.90;;;;;;4891602;29;20080;-56
2022/06/09 09:18:57;;;;;;;10.15;1.30;;;16.70;99.90;;;;;;4876827;29;20063;-57
2022/06/09 09:21:58;;;;;;;8.00;1.25;;;16.80;99.90;;;;;;4892202;29;20049;-57
2022/06/09 09:24:48;;;;;;;9.63;0.95;;;16.90;99.90;;;;;;4887738;29;20040;-58
2022/06/09 09:27:38;;;;;;;11.13;1.17;;;17.00;99.90;;;;;;4883508;29;20048;-57
2022/06/09 09:30:18;;;;;;;11.98;1.15;;;17.00;99.90;;;;;;4892076;29;20528;-58
2022/06/09 09:32:50;;;;;;;;;;;17.10;99.90;;;;;;4894044;29;20048;-57
2022/06/09 09:35:26;;;;;;;5.25;1.20;;;17.10;99.90;;;;;;4889378;29;19939;-57
2022/06/09 09:37:56;;;;;;;7.47;1.00;;;17.10;99.90;;;;;;4895191;29;20509;-57
2022/06/09 09:40:37;;;;;;;5.72;1.20;;;17.10;99.90;;;;;;4893317;29;20063;-58
2022/06/09 09:43:10;;;;;;;5.50;0.85;;;17.00;99.90;;;;;;4890287;29;20053;-58
2022/06/09 09:45:47;;;;;;;12.88;1.27;;;16.90;99.90;;;;;;4889684;29;20052;-58
2022/06/09 09:48:17;;;;;;;6.72;1.13;;;16.90;99.90;;;;;;4883587;29;20048;-58
2022/06/09 09:50:53;;;;;;;10.75;1.13;;;16.90;99.90;;;;;;4867543;29;20139;-56
2022/06/09 09:53:34;;;;;;;6.85;1.45;;;16.90;99.90;;;;;;4889323;29;20099;-58
2022/06/09 09:56:07;;;;;;;6.20;1.15;;;16.90;99.90;;;;;;4877728;29;20511;-57
2022/06/09 09:58:54;;;;;;;10.73;1.52;;;17.00;99.90;;;;;;4891391;29;20041;-57
2022/06/09 10:11:00;;;;;;;6.00;1.75;;;17.50;99.90;;;;;;4893058;29;20040;-58
2022/06/09 10:13:32;;;;;;;5.53;0.93;;;17.70;99.90;;;;;;4891157;29;20069;-58
2022/06/09 10:16:03;;;;;;;8.70;1.55;;;17.90;99.90;;;;;;4906248;29;20060;-58
2022/06/09 10:18:54;;;;;;;9.63;1.27;;;17.90;99.90;;;;;;4891729;29;20044;-58
2022/06/09 10:21:58;;;;;;;8.02;1.63;;;18.00;99.90;;;;;;4890891;29;20039;-58
2022/06/09 10:24:39;;;;;;;8.98;1.08;;;18.10;99.90;;;;;;4875920;29;20087;-58
2022/06/09 10:27:13;;;;;;;4.68;1.45;;;18.00;99.90;;;;;;4880891;29;20052;-57
2022/06/09 10:29:51;;;;;;;8.20;1.52;;;18.00;99.90;;;;;;4888183;29;20057;-58
2022/06/09 10:32:27;;;;;;;9.95;1.92;;;17.90;99.90;;;;;;4887773;29;20257;-58
2022/06/09 10:35:01;;;;;;;9.40;1.15;;;17.80;99.90;;;;;;4883472;29;20064;-57
2022/06/09 10:37:48;;;;;;;12.38;2.25;;;17.80;99.90;;;;;;4889653;29;20068;-58
2022/06/09 10:40:54;;;;;;;5.22;0.80;;;17.80;99.90;;;;;;4890922;29;20048;-58
2022/06/09 10:43:40;;;;;;;5.15;1.02;;;17.90;99.90;;;;;;4888617;29;20370;-59
2022/06/09 10:46:43;;;;;;;4.32;1.00;;;17.80;99.90;;;;;;4885032;29;20059;-59
2022/06/09 10:55:24;;;;;;;8.32;0.80;;;16.70;99.90;;;;;;4895248;29;20057;-57
2022/06/09 10:58:11;;;;;;;12.25;1.58;;;16.50;99.90;;;;;;4890644;29;20064;-59
2022/06/09 11:00:42;;;;;;;5.55;1.08;;;16.40;99.90;;;;;;4876316;29;20049;-59
2022/06/09 11:03:28;;;;;;;10.40;1.20;;;16.40;99.90;;;;;;4882597;29;20044;-59
2022/06/09 11:06:28;;;;;;;7.97;1.08;;;16.40;99.90;;;;;;4887224;29;20048;-58
2022/06/09 11:09:21;;;;;;;6.07;1.27;;;16.40;99.90;;;;;;4885205;29;20056;-58
2022/06/09 11:12:14;;;;;;;8.05;0.88;;;16.30;99.90;;;;;;4892117;29;20529;-59
2022/06/09 11:15:03;;;;;;;7.32;0.85;;;16.30;99.90;;;;;;4891633;29;20072;-58
2022/06/09 11:17:57;;;;;;;10.32;1.02;;;16.40;99.90;;;;;;4884568;29;20056;-58
2022/06/09 11:21:03;;;;;;;6.13;1.25;;;16.50;99.90;;;;;;4883710;29;20045;-58
2022/06/09 11:24:05;;;;;;;4.68;1.10;;;16.60;99.90;;;;;;4890313;29;20513;-58
2022/06/09 11:26:58;;;;;;;4.90;1.02;;;16.70;99.90;;;;;;4891557;29;20059;-58
2022/06/09 11:30:05;;;;;;;7.93;1.25;;;16.80;99.90;;;;;;4889260;29;20060;-58
2022/06/09 11:33:14;;;;;;;13.98;2.35;;;16.90;99.90;;;;;;4891869;29;20044;-58
2022/06/09 11:36:06;;;;;;;3.20;0.73;;;17.00;99.90;;;;;;4885158;29;20048;-58
2022/06/09 11:38:36;;;;;;;4.78;0.80;;;17.00;99.90;;;;;;4887659;29;20405;-58
2022/06/09 11:41:22;;;;;;;5.38;0.70;;;17.00;99.90;;;;;;4895753;29;20481;-58
2022/06/09 11:44:27;;;;;;;4.13;0.80;;;17.00;99.90;;;;;;4888002;29;20045;-57
2022/06/09 11:47:01;;;;;;;5.18;0.93;;;16.90;99.90;;;;;;4893616;29;20053;-58
2022/06/09 11:49:38;;;;;;;4.50;0.95;;;17.00;99.90;;;;;;4886023;29;20940;-57
2022/06/09 11:52:16;;;;;;;6.32;0.68;;;17.10;99.90;;;;;;4890754;29;20040;-57
2022/06/09 11:54:53;;;;;;;6.45;1.45;;;17.20;99.90;;;;;;4893366;29;20060;-58
2022/06/09 11:57:36;;;;;;;5.97;1.35;;;17.10;99.90;;;;;;4895019;29;20037;-58
2022/06/09 12:00:19;;;;;;;5.28;0.70;;;17.10;99.90;;;;;;4891838;29;20060;-57
2022/06/09 12:03:04;;;;;;;4.22;0.90;;;17.10;99.90;;;;;;4882644;29;20049;-57
2022/06/09 12:05:52;;;;;;;8.93;2.08;;;17.00;99.90;;;;;;4882855;29;20861;-59
2022/06/09 12:08:28;;;;;;;5.15;0.85;;;17.00;99.90;;;;;;4879764;29;20592;-57
2022/06/09 12:11:05;;;;;;;12.55;1.88;;;16.90;99.90;;;;;;4891001;29;20056;-58
2022/06/09 12:13:44;;;;;;;4.85;0.93;;;16.90;99.90;;;;;;4890197;29;20048;-57
2022/06/09 12:16:27;;;;;;;7.18;0.90;;;16.80;99.90;;;;;;4891811;29;20518;-57
2022/06/09 12:19:03;;;;;;;5.93;0.90;;;16.80;99.90;;;;;;4892691;29;20052;-57
2022/06/09 12:21:36;;;;;;;5.18;0.88;;;16.80;99.90;;;;;;4883210;29;20583;-57
2022/06/09 12:24:13;;;;;;;7.05;1.23;;;16.80;99.90;;;;;;4906030;29;20049;-57
2022/06/09 12:26:44;;;;;;;7.82;1.17;;;16.70;99.90;;;;;;4889538;29;20045;-57
2022/06/09 12:29:37;;;;;;;8.18;1.20;;;16.70;99.90;;;;;;4889873;29;20052;-57
2022/06/09 12:32:08;;;;;;;4.38;1.15;;;16.70;99.90;;;;;;4890694;29;20079;-57
2022/06/09 12:34:51;;;;;;;10.98;1.20;;;16.80;99.90;;;;;;4891260;29;20049;-57
2022/06/09 12:37:28;;;;;;;7.70;1.42;;;16.80;99.90;;;;;;4889199;29;20139;-57
2022/06/09 12:40:20;;;;;;;4.68;1.00;;;16.90;99.90;;;;;;4892761;29;20489;-57
2022/06/09 12:42:56;;;;;;;7.00;1.63;;;16.80;99.90;;;;;;4896321;29;20115;-57
2022/06/09 12:45:28;;;;;;;6.22;1.52;;;16.80;99.90;;;;;;4892092;29;20126;-58
2022/06/09 12:48:03;;;;;;;11.98;1.60;;;16.60;99.90;;;;;;4893973;29;20048;-58
2022/06/09 12:50:30;;;;;;;15.07;2.50;;;16.60;99.90;;;;;;4884816;29;20053;-58
2022/06/09 12:52:58;;;;;;;5.07;1.35;;;16.50;99.90;;;;;;4889919;29;20433;-58
2022/06/09 12:55:32;;;;;;;7.88;1.63;;;16.50;99.90;;;;;;4895276;29;20111;-58
2022/06/09 12:58:57;;;;;;;7.45;2.30;;;16.30;99.90;;;;;;4893193;29;20401;-58
2022/06/09 13:01:28;;;;;;;8.35;1.70;;;16.10;99.90;;;;;;4829562;29;20080;-57
2022/06/09 13:03:55;;;;;;;14.98;2.83;;;16.00;99.90;;;;;;4829178;29;20077;-57
2022/06/09 13:06:33;;;;;;;6.03;1.77;;;15.90;99.90;;;;;;4856572;29;20052;-58
2022/06/09 13:09:21;;;;;;;6.22;2.55;;;15.90;99.90;;;;;;4890556;29;20045;-57
2022/06/09 13:14:54;;;;;;;13.48;2.13;;;15.80;99.90;;;;;;4891443;29;20063;-57
2022/06/09 13:17:26;;;;;;;5.05;1.90;;;15.70;99.90;;;;;;4895867;29;20048;-57
2022/06/09 13:20:03;;;;;;;12.35;2.83;;;15.70;99.90;;;;;;4891657;29;20049;-57
2022/06/09 13:22:32;;;;;;;8.00;1.92;;;15.60;99.90;;;;;;4890978;29;20048;-58
2022/06/09 13:25:01;;;;;;;8.77;2.17;;;15.70;99.90;;;;;;4894948;29;20413;-57
2022/06/09 13:27:31;;;;;;;9.60;3.05;;;15.70;99.90;;;;;;4895534;29;20053;-58
2022/06/09 13:30:05;;;;;;;12.07;2.08;;;15.70;99.90;;;;;;4894461;29;20059;-58
2022/06/09 13:32:43;;;;;;;8.23;1.83;;;15.70;99.90;;;;;;4893891;29;20060;-58
2022/06/09 13:35:40;;;;;;;7.45;1.92;;;15.80;99.90;;;;;;4891430;29;20059;-58
2022/06/09 13:38:18;;;;;;;8.10;2.38;;;15.80;99.90;;;;;;4891242;29;20045;-57
2022/06/09 13:40:59;;;;;;;5.40;1.90;;;15.90;99.90;;;;;;4893454;29;20048;-58
2022/06/09 13:43:29;;;;;;;8.30;2.22;;;15.80;99.90;;;;;;4883587;29;20664;-59
2022/06/09 13:46:09;;;;;;;8.30;2.42;;;15.80;99.90;;;;;;4893170;29;20060;-58
2022/06/09 13:48:57;;;;;;;7.93;2.33;;;15.80;99.90;;;;;;4891013;29;20048;-58
2022/06/09 13:51:54;;;;;;;13.05;2.47;;;15.80;99.90;;;;;;4879787;29;20045;-57